»·PEaware :: EJA88 KDEN-KASE

EJA88 :: KDEN-KASE

FLIGHT INFORMATION

Flight Status: Arrived
Operator:
Netjets Aviation
More flights by this operator :: More flights under this callsign
Pilot: Zach S. (18794)
Aircraft: Unknown
(GLF6)
More flights by this aircraft type
Origin: KDEN Denver Intl
United States
Destination: KASE Aspen-Pitkin Co/Sardy
United States
More flights between these airports :: More routes between these airports
Route: +CONNR4 BULDG WERNR ZAKOR
File this flight plan on PilotEdge
Remarks: / L
Altitude:
(Current/Filed)
20,000ft
Speed:
(Current/Filed)
0kts
Departed: 04-May-18 12:37 PM
Arrived: 04-May-18 01:01 PM
Distance/Time
Traveled:
109nm/0:24
Distance/Time
To Go:
Arrived

Flight Plot

Page will automatically refresh every two minutes.

Flight plan parsing failed; only flown route is shown


Map Options




Map Legend


Flown Route
Filed Route
Departure Airport
Arrival Airport
Navaid (VOR, NDB)
Fix

Horizontal Profiles

Position Reports

Time Latitude Longitude Heading Altitude Ground
Speed
04-May-18 12:07 39.837788 -104.665108 0 5445ft 0kts
04-May-18 12:08 39.837788 -104.665108 0 5445ft 0kts
04-May-18 12:09 39.837788 -104.665108 0 5445ft 0kts
04-May-18 12:10 39.837788 -104.665108 0 5445ft 0kts
04-May-18 12:11 39.837788 -104.665108 0 5445ft 0kts
04-May-18 12:12 39.837788 -104.665108 0 5445ft 0kts
04-May-18 12:13 39.837788 -104.665108 0 5445ft 0kts
04-May-18 12:14 39.837788 -104.665108 0 5445ft 0kts
04-May-18 12:15 39.837788 -104.665108 0 5445ft 0kts
04-May-18 12:16 39.837788 -104.665108 0 5445ft 0kts
04-May-18 12:17 39.837788 -104.665108 0 5445ft 0kts
04-May-18 12:18 39.837788 -104.665108 0 5445ft 0kts
04-May-18 12:19 39.837788 -104.665108 0 5445ft 0kts
04-May-18 12:20 39.837788 -104.665108 0 5445ft 0kts
04-May-18 12:21 39.837788 -104.665108 0 5445ft 0kts
04-May-18 12:22 39.837788 -104.665108 0 5445ft 0kts
04-May-18 12:23 39.837788 -104.665108 0 5445ft 0kts
04-May-18 12:24 39.837788 -104.665108 0 5445ft 0kts
04-May-18 12:25 39.837788 -104.665108 0 5445ft 0kts
04-May-18 12:26 39.837788 -104.665108 0 5445ft 0kts
04-May-18 12:27 39.837788 -104.665108 0 5445ft 0kts
04-May-18 12:28 39.837788 -104.665108 0 5445ft 0kts
04-May-18 12:29 39.837788 -104.665108 0 5445ft 0kts
04-May-18 12:30 39.838323 -104.664557 61 5445ft 5kts
04-May-18 12:31 39.839212 -104.663650 19 5445ft 3kts
04-May-18 12:32 39.840078 -104.662492 127 5445ft 9kts
04-May-18 12:33 39.834493 -104.662492 180 5445ft 30kts
04-May-18 12:34 39.828940 -104.662510 182 5445ft 10kts
04-May-18 12:35 39.828394 -104.662093 87 5445ft 0kts
04-May-18 12:36 39.836265 -104.660327 359 5446ft 207kts
04-May-18 12:37 39.875946 -104.694797 264 8214ft 221kts
04-May-18 12:38 39.869115 -104.774902 266 10344ft 230kts
04-May-18 12:40 39.862196 -104.873618 266 12467ft 326kts
04-May-18 12:41 39.843006 -104.990430 256 13867ft 335kts
04-May-18 12:42 39.817382 -105.113325 255 15287ft 364kts
04-May-18 12:43 39.789762 -105.242967 255 16731ft 411kts
04-May-18 12:44 39.760304 -105.385521 257 18104ft 419kts
04-May-18 12:45 39.730407 -105.532339 256 19491ft 425kts
04-May-18 12:46 39.702786 -105.679233 266 20379ft 429kts
04-May-18 12:47 39.688428 -105.827900 264 20463ft 392kts
04-May-18 12:48 39.675476 -105.967515 264 20485ft 394kts
04-May-18 12:49 39.660973 -106.107643 264 20485ft 394kts
04-May-18 12:50 39.646638 -106.247127 264 20459ft 395kts
04-May-18 12:51 39.628116 -106.376752 256 17800ft 355kts
04-May-18 12:52 39.603008 -106.496973 256 16032ft 345kts
04-May-18 12:53 39.577169 -106.614533 247 16008ft 348kts
04-May-18 12:54 39.539847 -106.728289 248 16009ft 348kts
04-May-18 12:55 39.489666 -106.821403 230 15005ft 305kts
04-May-18 12:56 39.437961 -106.898610 230 14006ft 267kts
04-May-18 12:57 39.390505 -106.951173 167 14012ft 215kts
04-May-18 12:58 39.335076 -106.922966 158 12676ft 212kts
04-May-18 12:59 39.282146 -106.892304 157 10963ft 221kts
04-May-18 13:00 39.226659 -106.870419 161 7848ft 169kts
04-May-18 13:01 39.217113 -106.865303 56 7848ft 2kts
04-May-18 13:02 39.219481 -106.865924 339 7848ft 9kts
04-May-18 13:03 39.222784 -106.867161 13 7848ft 12kts
04-May-18 13:11 39.223827 -106.867103 251 7848ft 0kts
04-May-18 13:12 39.223827 -106.867103 251 7848ft 0kts

Navigation Log

Ident Type
Flight plan parsing failed, navigation log unavailable